sensor_id;sensor_type;location;lat;lon;timestamp;P1;durP1;ratioP1;P2;durP2;ratioP2
80681;SDS011;70045;40.200;44.582;2023-12-20T00:00:04;8.05;;;3.72;;
80681;SDS011;70045;40.200;44.582;2023-12-20T00:02:31;9.15;;;3.15;;
80681;SDS011;70045;40.200;44.582;2023-12-20T00:04:56;7.30;;;3.17;;
80681;SDS011;70045;40.200;44.582;2023-12-20T00:07:21;6.18;;;2.63;;
80681;SDS011;70045;40.200;44.582;2023-12-20T00:09:47;8.50;;;3.38;;
80681;SDS011;70045;40.200;44.582;2023-12-20T00:12:17;8.13;;;3.08;;
80681;SDS011;70045;40.200;44.582;2023-12-20T00:14:42;7.47;;;3.17;;
80681;SDS011;70045;40.200;44.582;2023-12-20T00:17:07;7.63;;;3.58;;
80681;SDS011;70045;40.200;44.582;2023-12-20T00:19:33;6.95;;;3.05;;
80681;SDS011;70045;40.200;44.582;2023-12-20T00:21:58;9.50;;;3.42;;
80681;SDS011;70045;40.200;44.582;2023-12-20T00:24:27;10.18;;;3.75;;
80681;SDS011;70045;40.200;44.582;2023-12-20T00:26:52;8.13;;;3.15;;
80681;SDS011;70045;40.200;44.582;2023-12-20T00:29:17;7.85;;;3.22;;
80681;SDS011;70045;40.200;44.582;2023-12-20T00:31:43;6.28;;;3.08;;
80681;SDS011;70045;40.200;44.582;2023-12-20T00:34:08;7.18;;;3.15;;
80681;SDS011;70045;40.200;44.582;2023-12-20T00:36:38;7.13;;;3.45;;
80681;SDS011;70045;40.200;44.582;2023-12-20T00:39:04;8.65;;;3.40;;
80681;SDS011;70045;40.200;44.582;2023-12-20T00:41:29;10.60;;;3.72;;
80681;SDS011;70045;40.200;44.582;2023-12-20T00:43:54;11.00;;;3.38;;
80681;SDS011;70045;40.200;44.582;2023-12-20T00:46:20;8.10;;;3.10;;
80681;SDS011;70045;40.200;44.582;2023-12-20T00:48:54;10.93;;;3.53;;
80681;SDS011;70045;40.200;44.582;2023-12-20T00:51:20;7.15;;;2.95;;
80681;SDS011;70045;40.200;44.582;2023-12-20T00:53:45;7.30;;;3.17;;
80681;SDS011;70045;40.200;44.582;2023-12-20T00:56:11;11.90;;;3.58;;
80681;SDS011;70045;40.200;44.582;2023-12-20T00:58:36;7.25;;;3.60;;
80681;SDS011;70045;40.200;44.582;2023-12-20T01:01:05;9.35;;;3.75;;
80681;SDS011;70045;40.200;44.582;2023-12-20T01:03:30;8.00;;;2.90;;
80681;SDS011;70045;40.200;44.582;2023-12-20T01:05:56;9.95;;;3.53;;
80681;SDS011;70045;40.200;44.582;2023-12-20T01:08:21;8.43;;;3.55;;
80681;SDS011;70045;40.200;44.582;2023-12-20T01:10:47;8.95;;;3.42;;
80681;SDS011;70045;40.200;44.582;2023-12-20T01:13:16;8.05;;;3.50;;
80681;SDS011;70045;40.200;44.582;2023-12-20T01:15:42;8.48;;;3.55;;
80681;SDS011;70045;40.200;44.582;2023-12-20T01:18:07;13.48;;;3.70;;
80681;SDS011;70045;40.200;44.582;2023-12-20T01:20:33;8.60;;;3.97;;
80681;SDS011;70045;40.200;44.582;2023-12-20T01:22:58;6.90;;;3.65;;
80681;SDS011;70045;40.200;44.582;2023-12-20T01:25:30;10.57;;;3.80;;
80681;SDS011;70045;40.200;44.582;2023-12-20T01:27:55;8.98;;;3.92;;
80681;SDS011;70045;40.200;44.582;2023-12-20T01:30:20;7.90;;;3.78;;
80681;SDS011;70045;40.200;44.582;2023-12-20T01:32:46;6.53;;;2.88;;
80681;SDS011;70045;40.200;44.582;2023-12-20T01:35:11;8.18;;;3.08;;
80681;SDS011;70045;40.200;44.582;2023-12-20T01:37:40;9.73;;;3.55;;
80681;SDS011;70045;40.200;44.582;2023-12-20T01:40:05;10.20;;;3.45;;
80681;SDS011;70045;40.200;44.582;2023-12-20T01:42:31;9.40;;;3.53;;
80681;SDS011;70045;40.200;44.582;2023-12-20T01:44:56;6.80;;;3.30;;
80681;SDS011;70045;40.200;44.582;2023-12-20T01:47:22;8.50;;;3.83;;
80681;SDS011;70045;40.200;44.582;2023-12-20T01:49:50;5.10;;;2.60;;
80681;SDS011;70045;40.200;44.582;2023-12-20T01:52:16;6.38;;;2.75;;
80681;SDS011;70045;40.200;44.582;2023-12-20T01:54:42;8.68;;;2.83;;
80681;SDS011;70045;40.200;44.582;2023-12-20T01:57:08;6.15;;;2.90;;
80681;SDS011;70045;40.200;44.582;2023-12-20T01:59:33;6.70;;;2.53;;
80681;SDS011;70045;40.200;44.582;2023-12-20T02:02:03;5.90;;;2.70;;
80681;SDS011;70045;40.200;44.582;2023-12-20T02:04:28;5.38;;;2.20;;
80681;SDS011;70045;40.200;44.582;2023-12-20T02:06:54;6.90;;;2.40;;
80681;SDS011;70045;40.200;44.582;2023-12-20T02:09:21;5.57;;;2.55;;
80681;SDS011;70045;40.200;44.582;2023-12-20T02:11:47;5.75;;;2.75;;
80681;SDS011;70045;40.200;44.582;2023-12-20T02:14:22;5.25;;;2.50;;
80681;SDS011;70045;40.200;44.582;2023-12-20T02:16:48;4.90;;;2.25;;
80681;SDS011;70045;40.200;44.582;2023-12-20T02:19:14;5.07;;;2.30;;
80681;SDS011;70045;40.200;44.582;2023-12-20T02:21:39;7.75;;;2.90;;
80681;SDS011;70045;40.200;44.582;2023-12-20T02:24:05;6.90;;;2.83;;
80681;SDS011;70045;40.200;44.582;2023-12-20T02:26:39;6.28;;;2.75;;
80681;SDS011;70045;40.200;44.582;2023-12-20T02:29:05;5.82;;;2.95;;
80681;SDS011;70045;40.200;44.582;2023-12-20T02:31:31;5.30;;;2.67;;
80681;SDS011;70045;40.200;44.582;2023-12-20T02:33:56;9.45;;;3.50;;
80681;SDS011;70045;40.200;44.582;2023-12-20T02:36:22;10.95;;;3.00;;
80681;SDS011;70045;40.200;44.582;2023-12-20T02:38:50;8.35;;;3.58;;
80681;SDS011;70045;40.200;44.582;2023-12-20T02:41:16;7.03;;;3.08;;
80681;SDS011;70045;40.200;44.582;2023-12-20T02:43:41;8.13;;;3.60;;
80681;SDS011;70045;40.200;44.582;2023-12-20T02:46:06;8.90;;;3.40;;
80681;SDS011;70045;40.200;44.582;2023-12-20T02:48:32;8.65;;;2.95;;
80681;SDS011;70045;40.200;44.582;2023-12-20T02:51:00;10.38;;;3.38;;
80681;SDS011;70045;40.200;44.582;2023-12-20T02:53:26;8.30;;;3.78;;
80681;SDS011;70045;40.200;44.582;2023-12-20T02:55:51;11.30;;;4.00;;
80681;SDS011;70045;40.200;44.582;2023-12-20T02:58:17;8.00;;;3.70;;
80681;SDS011;70045;40.200;44.582;2023-12-20T03:00:42;11.05;;;3.60;;
80681;SDS011;70045;40.200;44.582;2023-12-20T03:03:17;10.95;;;3.53;;
80681;SDS011;70045;40.200;44.582;2023-12-20T03:05:43;8.02;;;3.10;;
80681;SDS011;70045;40.200;44.582;2023-12-20T03:08:10;8.50;;;3.42;;
80681;SDS011;70045;40.200;44.582;2023-12-20T03:10:35;8.27;;;3.70;;
80681;SDS011;70045;40.200;44.582;2023-12-20T03:13:00;10.07;;;3.63;;
80681;SDS011;70045;40.200;44.582;2023-12-20T03:15:30;9.90;;;3.53;;
80681;SDS011;70045;40.200;44.582;2023-12-20T03:17:55;6.90;;;2.97;;
80681;SDS011;70045;40.200;44.582;2023-12-20T03:20:21;9.10;;;3.80;;
80681;SDS011;70045;40.200;44.582;2023-12-20T03:22:46;9.40;;;3.63;;
80681;SDS011;70045;40.200;44.582;2023-12-20T03:25:11;7.63;;;3.65;;
80681;SDS011;70045;40.200;44.582;2023-12-20T03:27:41;8.68;;;3.90;;
80681;SDS011;70045;40.200;44.582;2023-12-20T03:30:06;7.10;;;3.45;;
80681;SDS011;70045;40.200;44.582;2023-12-20T03:32:32;8.30;;;3.10;;
80681;SDS011;70045;40.200;44.582;2023-12-20T03:34:57;6.80;;;3.28;;
80681;SDS011;70045;40.200;44.582;2023-12-20T03:37:23;10.77;;;2.92;;
80681;SDS011;70045;40.200;44.582;2023-12-20T03:39:52;7.53;;;3.40;;
80681;SDS011;70045;40.200;44.582;2023-12-20T03:42:18;13.07;;;3.25;;
80681;SDS011;70045;40.200;44.582;2023-12-20T03:44:43;8.60;;;3.03;;
80681;SDS011;70045;40.200;44.582;2023-12-20T03:47:08;6.45;;;2.65;;
80681;SDS011;70045;40.200;44.582;2023-12-20T03:49:34;8.27;;;3.20;;
80681;SDS011;70045;40.200;44.582;2023-12-20T03:52:09;7.93;;;3.08;;
80681;SDS011;70045;40.200;44.582;2023-12-20T03:54:35;9.45;;;3.30;;
80681;SDS011;70045;40.200;44.582;2023-12-20T03:57:00;7.50;;;3.03;;
80681;SDS011;70045;40.200;44.582;2023-12-20T03:59:26;7.50;;;3.35;;
80681;SDS011;70045;40.200;44.582;2023-12-20T04:01:52;9.40;;;3.70;;
80681;SDS011;70045;40.200;44.582;2023-12-20T04:04:24;9.77;;;3.80;;
80681;SDS011;70045;40.200;44.582;2023-12-20T04:06:49;9.88;;;3.55;;
80681;SDS011;70045;40.200;44.582;2023-12-20T04:09:14;9.25;;;3.70;;
80681;SDS011;70045;40.200;44.582;2023-12-20T04:11:40;11.80;;;3.92;;
80681;SDS011;70045;40.200;44.582;2023-12-20T04:14:05;14.07;;;4.35;;
80681;SDS011;70045;40.200;44.582;2023-12-20T04:16:35;17.15;;;4.82;;
80681;SDS011;70045;40.200;44.582;2023-12-20T04:19:00;9.48;;;4.40;;
80681;SDS011;70045;40.200;44.582;2023-12-20T04:21:26;10.45;;;4.45;;
80681;SDS011;70045;40.200;44.582;2023-12-20T04:23:51;14.30;;;5.00;;
80681;SDS011;70045;40.200;44.582;2023-12-20T04:26:17;13.18;;;5.30;;
80681;SDS011;70045;40.200;44.582;2023-12-20T04:28:51;17.45;;;5.68;;
80681;SDS011;70045;40.200;44.582;2023-12-20T04:31:17;21.45;;;6.32;;
80681;SDS011;70045;40.200;44.582;2023-12-20T04:33:42;20.25;;;6.82;;
80681;SDS011;70045;40.200;44.582;2023-12-20T04:36:08;14.65;;;6.45;;
80681;SDS011;70045;40.200;44.582;2023-12-20T04:38:33;17.25;;;6.40;;
80681;SDS011;70045;40.200;44.582;2023-12-20T04:41:09;21.25;;;8.25;;
80681;SDS011;70045;40.200;44.582;2023-12-20T04:43:35;24.88;;;8.55;;
80681;SDS011;70045;40.200;44.582;2023-12-20T04:46:00;23.55;;;8.35;;
80681;SDS011;70045;40.200;44.582;2023-12-20T04:48:25;21.70;;;8.00;;
80681;SDS011;70045;40.200;44.582;2023-12-20T04:50:51;20.35;;;7.93;;
80681;SDS011;70045;40.200;44.582;2023-12-20T04:53:20;20.33;;;7.80;;
80681;SDS011;70045;40.200;44.582;2023-12-20T04:55:46;16.00;;;7.80;;
80681;SDS011;70045;40.200;44.582;2023-12-20T04:58:11;18.05;;;7.47;;
80681;SDS011;70045;40.200;44.582;2023-12-20T05:00:36;20.08;;;8.65;;
80681;SDS011;70045;40.200;44.582;2023-12-20T05:03:02;20.45;;;9.15;;
80681;SDS011;70045;40.200;44.582;2023-12-20T05:05:33;21.10;;;9.55;;
80681;SDS011;70045;40.200;44.582;2023-12-20T05:07:58;24.77;;;11.25;;
80681;SDS011;70045;40.200;44.582;2023-12-20T05:10:24;28.30;;;10.45;;
80681;SDS011;70045;40.200;44.582;2023-12-20T05:12:49;30.38;;;12.05;;
80681;SDS011;70045;40.200;44.582;2023-12-20T05:15:14;21.65;;;10.88;;
80681;SDS011;70045;40.200;44.582;2023-12-20T05:17:49;25.63;;;10.25;;
80681;SDS011;70045;40.200;44.582;2023-12-20T05:20:15;22.05;;;9.35;;
80681;SDS011;70045;40.200;44.582;2023-12-20T05:22:40;20.25;;;8.13;;
80681;SDS011;70045;40.200;44.582;2023-12-20T05:25:06;20.85;;;8.30;;
80681;SDS011;70045;40.200;44.582;2023-12-20T05:27:32;20.13;;;7.90;;
80681;SDS011;70045;40.200;44.582;2023-12-20T05:30:07;16.52;;;7.45;;
80681;SDS011;70045;40.200;44.582;2023-12-20T05:32:33;23.55;;;7.65;;
80681;SDS011;70045;40.200;44.582;2023-12-20T05:34:58;19.40;;;8.13;;
80681;SDS011;70045;40.200;44.582;2023-12-20T05:37:24;19.70;;;8.23;;
80681;SDS011;70045;40.200;44.582;2023-12-20T05:39:49;24.73;;;9.88;;
80681;SDS011;70045;40.200;44.582;2023-12-20T05:42:23;22.08;;;8.23;;
80681;SDS011;70045;40.200;44.582;2023-12-20T05:44:49;22.33;;;7.65;;
80681;SDS011;70045;40.200;44.582;2023-12-20T05:47:14;18.60;;;7.18;;
80681;SDS011;70045;40.200;44.582;2023-12-20T05:49:39;15.82;;;6.28;;
80681;SDS011;70045;40.200;44.582;2023-12-20T05:52:05;15.98;;;5.65;;
80681;SDS011;70045;40.200;44.582;2023-12-20T05:54:39;15.63;;;6.53;;
80681;SDS011;70045;40.200;44.582;2023-12-20T05:57:05;22.05;;;6.72;;
80681;SDS011;70045;40.200;44.582;2023-12-20T05:59:30;16.92;;;6.90;;
80681;SDS011;70045;40.200;44.582;2023-12-20T06:01:55;20.33;;;7.90;;
80681;SDS011;70045;40.200;44.582;2023-12-20T06:04:21;29.70;;;8.70;;
80681;SDS011;70045;40.200;44.582;2023-12-20T06:06:55;21.35;;;9.13;;
80681;SDS011;70045;40.200;44.582;2023-12-20T06:09:21;29.15;;;9.57;;
80681;SDS011;70045;40.200;44.582;2023-12-20T06:11:46;18.48;;;7.53;;
80681;SDS011;70045;40.200;44.582;2023-12-20T06:14:12;18.80;;;7.88;;
80681;SDS011;70045;40.200;44.582;2023-12-20T06:16:37;21.30;;;7.18;;
80681;SDS011;70045;40.200;44.582;2023-12-20T06:19:11;20.65;;;8.38;;
80681;SDS011;70045;40.200;44.582;2023-12-20T06:21:37;24.20;;;8.07;;
80681;SDS011;70045;40.200;44.582;2023-12-20T06:24:02;22.77;;;8.77;;
80681;SDS011;70045;40.200;44.582;2023-12-20T06:26:28;41.35;;;13.02;;
80681;SDS011;70045;40.200;44.582;2023-12-20T06:28:53;31.10;;;14.10;;
80681;SDS011;70045;40.200;44.582;2023-12-20T06:31:28;32.38;;;14.25;;
80681;SDS011;70045;40.200;44.582;2023-12-20T06:33:54;34.35;;;16.55;;
80681;SDS011;70045;40.200;44.582;2023-12-20T06:36:19;38.40;;;16.33;;
80681;SDS011;70045;40.200;44.582;2023-12-20T06:38:44;34.42;;;16.40;;
80681;SDS011;70045;40.200;44.582;2023-12-20T06:41:12;40.38;;;16.65;;
80681;SDS011;70045;40.200;44.582;2023-12-20T06:43:42;35.03;;;15.68;;
80681;SDS011;70045;40.200;44.582;2023-12-20T06:46:08;34.15;;;15.20;;
80681;SDS011;70045;40.200;44.582;2023-12-20T06:48:34;36.15;;;15.52;;
80681;SDS011;70045;40.200;44.582;2023-12-20T06:51:00;35.70;;;15.70;;
80681;SDS011;70045;40.200;44.582;2023-12-20T06:53:26;36.83;;;16.27;;
80681;SDS011;70045;40.200;44.582;2023-12-20T06:55:57;39.85;;;16.73;;
80681;SDS011;70045;40.200;44.582;2023-12-20T06:58:23;38.85;;;18.65;;
80681;SDS011;70045;40.200;44.582;2023-12-20T07:00:50;39.35;;;17.63;;
80681;SDS011;70045;40.200;44.582;2023-12-20T07:03:16;43.15;;;18.67;;
80681;SDS011;70045;40.200;44.582;2023-12-20T07:05:41;45.40;;;18.05;;
80681;SDS011;70045;40.200;44.582;2023-12-20T07:08:16;48.15;;;20.25;;
80681;SDS011;70045;40.200;44.582;2023-12-20T07:10:42;41.85;;;18.20;;
80681;SDS011;70045;40.200;44.582;2023-12-20T07:13:07;42.22;;;17.67;;
80681;SDS011;70045;40.200;44.582;2023-12-20T07:15:32;43.45;;;18.35;;
80681;SDS011;70045;40.200;44.582;2023-12-20T07:17:58;36.92;;;16.52;;
80681;SDS011;70045;40.200;44.582;2023-12-20T07:20:33;41.47;;;18.50;;
80681;SDS011;70045;40.200;44.582;2023-12-20T07:22:59;39.00;;;17.85;;
80681;SDS011;70045;40.200;44.582;2023-12-20T07:25:25;42.83;;;17.77;;
80681;SDS011;70045;40.200;44.582;2023-12-20T07:27:50;41.22;;;18.30;;
80681;SDS011;70045;40.200;44.582;2023-12-20T07:30:15;44.17;;;17.88;;
80681;SDS011;70045;40.200;44.582;2023-12-20T07:32:50;39.20;;;16.83;;
80681;SDS011;70045;40.200;44.582;2023-12-20T07:35:16;49.92;;;19.13;;
80681;SDS011;70045;40.200;44.582;2023-12-20T07:37:41;45.95;;;18.48;;
80681;SDS011;70045;40.200;44.582;2023-12-20T07:40:07;45.10;;;18.40;;
80681;SDS011;70045;40.200;44.582;2023-12-20T07:42:33;44.13;;;18.75;;
80681;SDS011;70045;40.200;44.582;2023-12-20T07:45:03;42.90;;;19.60;;
80681;SDS011;70045;40.200;44.582;2023-12-20T07:47:28;43.80;;;18.30;;
80681;SDS011;70045;40.200;44.582;2023-12-20T07:49:54;43.88;;;19.02;;
80681;SDS011;70045;40.200;44.582;2023-12-20T07:52:19;48.22;;;19.40;;
80681;SDS011;70045;40.200;44.582;2023-12-20T07:54:45;43.95;;;19.10;;
80681;SDS011;70045;40.200;44.582;2023-12-20T07:57:20;38.60;;;17.88;;
80681;SDS011;70045;40.200;44.582;2023-12-20T07:59:46;42.55;;;19.67;;
80681;SDS011;70045;40.200;44.582;2023-12-20T08:02:12;45.60;;;19.40;;
80681;SDS011;70045;40.200;44.582;2023-12-20T08:04:37;46.15;;;19.48;;
80681;SDS011;70045;40.200;44.582;2023-12-20T08:07:03;45.17;;;19.45;;
80681;SDS011;70045;40.200;44.582;2023-12-20T08:09:38;44.78;;;21.27;;
80681;SDS011;70045;40.200;44.582;2023-12-20T08:12:04;53.67;;;22.48;;
80681;SDS011;70045;40.200;44.582;2023-12-20T08:14:29;46.63;;;21.50;;
80681;SDS011;70045;40.200;44.582;2023-12-20T08:16:55;41.58;;;19.60;;
80681;SDS011;70045;40.200;44.582;2023-12-20T08:19:20;46.42;;;19.88;;
80681;SDS011;70045;40.200;44.582;2023-12-20T08:21:52;44.17;;;19.27;;
80681;SDS011;70045;40.200;44.582;2023-12-20T08:24:17;42.28;;;19.95;;
80681;SDS011;70045;40.200;44.582;2023-12-20T08:26:42;42.20;;;18.63;;
80681;SDS011;70045;40.200;44.582;2023-12-20T08:29:08;46.78;;;22.00;;
80681;SDS011;70045;40.200;44.582;2023-12-20T08:31:33;42.20;;;19.23;;
80681;SDS011;70045;40.200;44.582;2023-12-20T08:34:05;39.03;;;18.80;;
80681;SDS011;70045;40.200;44.582;2023-12-20T08:36:31;40.35;;;18.50;;
80681;SDS011;70045;40.200;44.582;2023-12-20T08:38:56;36.63;;;18.05;;
80681;SDS011;70045;40.200;44.582;2023-12-20T08:41:21;41.50;;;17.88;;
80681;SDS011;70045;40.200;44.582;2023-12-20T08:43:47;35.70;;;17.02;;
80681;SDS011;70045;40.200;44.582;2023-12-20T08:46:21;39.05;;;17.50;;
80681;SDS011;70045;40.200;44.582;2023-12-20T08:48:46;38.78;;;17.25;;
80681;SDS011;70045;40.200;44.582;2023-12-20T08:51:13;40.60;;;19.05;;
80681;SDS011;70045;40.200;44.582;2023-12-20T08:53:38;38.38;;;17.30;;
80681;SDS011;70045;40.200;44.582;2023-12-20T08:56:03;36.03;;;16.50;;
80681;SDS011;70045;40.200;44.582;2023-12-20T08:58:39;35.25;;;16.63;;
80681;SDS011;70045;40.200;44.582;2023-12-20T09:01:04;33.08;;;16.13;;
80681;SDS011;70045;40.200;44.582;2023-12-20T09:03:30;36.10;;;16.83;;
80681;SDS011;70045;40.200;44.582;2023-12-20T09:05:55;46.40;;;20.23;;
80681;SDS011;70045;40.200;44.582;2023-12-20T09:08:21;35.85;;;18.08;;
80681;SDS011;70045;40.200;44.582;2023-12-20T09:10:55;45.25;;;21.67;;
80681;SDS011;70045;40.200;44.582;2023-12-20T09:13:21;51.78;;;22.70;;
80681;SDS011;70045;40.200;44.582;2023-12-20T09:15:46;44.13;;;21.52;;
80681;SDS011;70045;40.200;44.582;2023-12-20T09:18:12;43.78;;;22.02;;
80681;SDS011;70045;40.200;44.582;2023-12-20T09:20:37;59.45;;;23.75;;
80681;SDS011;70045;40.200;44.582;2023-12-20T09:23:11;56.28;;;25.65;;
80681;SDS011;70045;40.200;44.582;2023-12-20T09:25:37;55.88;;;24.33;;
80681;SDS011;70045;40.200;44.582;2023-12-20T09:28:02;53.38;;;24.25;;
80681;SDS011;70045;40.200;44.582;2023-12-20T09:30:28;58.97;;;25.70;;
80681;SDS011;70045;40.200;44.582;2023-12-20T09:32:54;50.15;;;24.88;;
80681;SDS011;70045;40.200;44.582;2023-12-20T09:35:28;53.00;;;24.63;;
80681;SDS011;70045;40.200;44.582;2023-12-20T09:37:53;55.30;;;26.52;;
80681;SDS011;70045;40.200;44.582;2023-12-20T09:40:19;52.40;;;24.92;;
80681;SDS011;70045;40.200;44.582;2023-12-20T09:42:48;62.53;;;26.00;;
80681;SDS011;70045;40.200;44.582;2023-12-20T09:45:21;56.58;;;26.73;;
80681;SDS011;70045;40.200;44.582;2023-12-20T09:47:55;60.00;;;26.63;;
80681;SDS011;70045;40.200;44.582;2023-12-20T09:52:51;62.65;;;29.45;;
80681;SDS011;70045;40.200;44.582;2023-12-20T09:55:19;69.95;;;29.42;;
80681;SDS011;70045;40.200;44.582;2023-12-20T09:57:45;65.55;;;26.85;;
80681;SDS011;70045;40.200;44.582;2023-12-20T10:00:20;66.22;;;29.42;;
80681;SDS011;70045;40.200;44.582;2023-12-20T10:03:04;68.95;;;29.58;;
80681;SDS011;70045;40.200;44.582;2023-12-20T10:05:31;60.22;;;28.67;;
80681;SDS011;70045;40.200;44.582;2023-12-20T10:07:58;67.28;;;29.38;;
80681;SDS011;70045;40.200;44.582;2023-12-20T10:10:33;67.38;;;30.17;;
80681;SDS011;70045;40.200;44.582;2023-12-20T10:13:06;64.30;;;28.02;;
80681;SDS011;70045;40.200;44.582;2023-12-20T10:15:35;61.78;;;28.23;;
80681;SDS011;70045;40.200;44.582;2023-12-20T10:18:02;61.85;;;27.52;;
80681;SDS011;70045;40.200;44.582;2023-12-20T10:20:28;62.03;;;28.25;;
80681;SDS011;70045;40.200;44.582;2023-12-20T10:23:03;66.28;;;30.52;;
80681;SDS011;70045;40.200;44.582;2023-12-20T10:25:29;66.18;;;30.02;;
80681;SDS011;70045;40.200;44.582;2023-12-20T10:28:15;68.85;;;30.95;;
80681;SDS011;70045;40.200;44.582;2023-12-20T10:30:41;64.50;;;28.50;;
80681;SDS011;70045;40.200;44.582;2023-12-20T10:33:23;64.68;;;28.85;;
80681;SDS011;70045;40.200;44.582;2023-12-20T10:35:52;69.63;;;29.23;;
80681;SDS011;70045;40.200;44.582;2023-12-20T10:38:18;67.78;;;27.85;;
80681;SDS011;70045;40.200;44.582;2023-12-20T10:40:45;65.88;;;28.80;;
80681;SDS011;70045;40.200;44.582;2023-12-20T10:43:11;70.78;;;30.75;;
80681;SDS011;70045;40.200;44.582;2023-12-20T10:45:46;62.13;;;27.98;;
80681;SDS011;70045;40.200;44.582;2023-12-20T10:48:12;67.97;;;27.20;;
80681;SDS011;70045;40.200;44.582;2023-12-20T10:50:37;69.47;;;30.45;;
80681;SDS011;70045;40.200;44.582;2023-12-20T10:53:03;66.47;;;29.98;;
80681;SDS011;70045;40.200;44.582;2023-12-20T10:55:29;65.00;;;29.88;;
80681;SDS011;70045;40.200;44.582;2023-12-20T10:58:06;64.80;;;29.85;;
80681;SDS011;70045;40.200;44.582;2023-12-20T11:00:34;73.28;;;30.83;;
80681;SDS011;70045;40.200;44.582;2023-12-20T11:03:04;81.05;;;32.38;;
80681;SDS011;70045;40.200;44.582;2023-12-20T11:05:36;80.50;;;32.55;;
80681;SDS011;70045;40.200;44.582;2023-12-20T11:11:23;67.47;;;30.05;;
80681;SDS011;70045;40.200;44.582;2023-12-20T11:13:57;66.20;;;30.42;;
80681;SDS011;70045;40.200;44.582;2023-12-20T11:16:27;68.95;;;28.67;;
80681;SDS011;70045;40.200;44.582;2023-12-20T11:19:05;66.40;;;29.35;;
80681;SDS011;70045;40.200;44.582;2023-12-20T11:21:30;66.20;;;30.20;;
80681;SDS011;70045;40.200;44.582;2023-12-20T11:23:56;65.38;;;30.98;;
80681;SDS011;70045;40.200;44.582;2023-12-20T11:26:28;69.55;;;30.85;;
80681;SDS011;70045;40.200;44.582;2023-12-20T11:28:54;63.25;;;29.42;;
80681;SDS011;70045;40.200;44.582;2023-12-20T11:31:49;73.25;;;30.55;;
80681;SDS011;70045;40.200;44.582;2023-12-20T11:34:14;66.53;;;32.63;;
80681;SDS011;70045;40.200;44.582;2023-12-20T11:36:39;75.38;;;30.25;;
80681;SDS011;70045;40.200;44.582;2023-12-20T11:39:05;67.50;;;29.42;;
80681;SDS011;70045;40.200;44.582;2023-12-20T11:41:30;68.35;;;29.08;;
80681;SDS011;70045;40.200;44.582;2023-12-20T11:44:07;67.05;;;29.83;;
80681;SDS011;70045;40.200;44.582;2023-12-20T11:46:33;74.13;;;29.38;;
80681;SDS011;70045;40.200;44.582;2023-12-20T11:49:00;70.18;;;31.05;;
80681;SDS011;70045;40.200;44.582;2023-12-20T11:51:25;65.10;;;27.45;;
80681;SDS011;70045;40.200;44.582;2023-12-20T11:53:51;67.28;;;30.10;;
80681;SDS011;70045;40.200;44.582;2023-12-20T11:56:27;69.95;;;28.20;;
80681;SDS011;70045;40.200;44.582;2023-12-20T11:58:52;64.60;;;28.33;;
80681;SDS011;70045;40.200;44.582;2023-12-20T12:01:19;73.90;;;29.77;;
80681;SDS011;70045;40.200;44.582;2023-12-20T12:03:45;61.15;;;28.30;;
80681;SDS011;70045;40.200;44.582;2023-12-20T12:06:10;64.43;;;27.77;;
80681;SDS011;70045;40.200;44.582;2023-12-20T12:08:46;63.65;;;27.73;;
80681;SDS011;70045;40.200;44.582;2023-12-20T12:11:11;58.67;;;27.33;;
80681;SDS011;70045;40.200;44.582;2023-12-20T12:13:37;67.93;;;27.15;;
80681;SDS011;70045;40.200;44.582;2023-12-20T12:16:02;58.83;;;26.63;;
80681;SDS011;70045;40.200;44.582;2023-12-20T12:18:29;67.15;;;28.63;;
80681;SDS011;70045;40.200;44.582;2023-12-20T12:21:04;59.35;;;28.35;;
80681;SDS011;70045;40.200;44.582;2023-12-20T12:23:29;61.75;;;26.02;;
80681;SDS011;70045;40.200;44.582;2023-12-20T12:25:55;63.13;;;28.08;;
80681;SDS011;70045;40.200;44.582;2023-12-20T12:28:20;62.58;;;28.15;;
80681;SDS011;70045;40.200;44.582;2023-12-20T12:31:07;57.83;;;26.38;;
80681;SDS011;70045;40.200;44.582;2023-12-20T12:33:42;61.10;;;27.67;;
80681;SDS011;70045;40.200;44.582;2023-12-20T12:36:08;65.65;;;26.50;;
80681;SDS011;70045;40.200;44.582;2023-12-20T12:38:34;59.55;;;25.95;;
80681;SDS011;70045;40.200;44.582;2023-12-20T12:41:00;61.80;;;28.88;;
80681;SDS011;70045;40.200;44.582;2023-12-20T12:43:36;59.15;;;27.15;;
80681;SDS011;70045;40.200;44.582;2023-12-20T12:46:01;67.03;;;28.25;;
80681;SDS011;70045;40.200;44.582;2023-12-20T12:48:27;66.20;;;26.75;;
80681;SDS011;70045;40.200;44.582;2023-12-20T12:50:52;64.55;;;26.80;;
80681;SDS011;70045;40.200;44.582;2023-12-20T12:53:17;61.25;;;25.95;;
80681;SDS011;70045;40.200;44.582;2023-12-20T12:55:53;62.55;;;26.33;;
80681;SDS011;70045;40.200;44.582;2023-12-20T12:58:18;59.42;;;26.05;;
80681;SDS011;70045;40.200;44.582;2023-12-20T13:00:44;62.15;;;25.58;;
80681;SDS011;70045;40.200;44.582;2023-12-20T13:03:09;58.63;;;26.33;;
80681;SDS011;70045;40.200;44.582;2023-12-20T13:05:35;63.15;;;26.60;;
80681;SDS011;70045;40.200;44.582;2023-12-20T13:08:11;59.33;;;25.23;;
80681;SDS011;70045;40.200;44.582;2023-12-20T13:10:36;61.75;;;25.48;;
80681;SDS011;70045;40.200;44.582;2023-12-20T13:13:02;58.15;;;26.13;;
80681;SDS011;70045;40.200;44.582;2023-12-20T13:15:27;61.03;;;25.63;;
80681;SDS011;70045;40.200;44.582;2023-12-20T13:17:53;59.08;;;26.58;;
80681;SDS011;70045;40.200;44.582;2023-12-20T13:20:28;53.50;;;24.38;;
80681;SDS011;70045;40.200;44.582;2023-12-20T13:22:53;55.03;;;25.23;;
80681;SDS011;70045;40.200;44.582;2023-12-20T13:25:19;58.38;;;25.55;;
80681;SDS011;70045;40.200;44.582;2023-12-20T13:27:44;60.35;;;25.02;;
80681;SDS011;70045;40.200;44.582;2023-12-20T13:30:10;55.95;;;25.23;;
80681;SDS011;70045;40.200;44.582;2023-12-20T13:32:45;63.90;;;26.60;;
80681;SDS011;70045;40.200;44.582;2023-12-20T13:35:10;64.20;;;28.15;;
80681;SDS011;70045;40.200;44.582;2023-12-20T13:37:36;60.08;;;26.90;;
80681;SDS011;70045;40.200;44.582;2023-12-20T13:40:01;65.95;;;28.05;;
80681;SDS011;70045;40.200;44.582;2023-12-20T13:42:27;62.78;;;27.65;;
80681;SDS011;70045;40.200;44.582;2023-12-20T13:44:58;62.40;;;27.65;;
80681;SDS011;70045;40.200;44.582;2023-12-20T13:47:24;66.53;;;27.45;;
80681;SDS011;70045;40.200;44.582;2023-12-20T13:49:49;68.85;;;28.23;;
80681;SDS011;70045;40.200;44.582;2023-12-20T13:52:14;71.93;;;28.33;;
80681;SDS011;70045;40.200;44.582;2023-12-20T13:54:40;65.93;;;27.77;;
80681;SDS011;70045;40.200;44.582;2023-12-20T13:57:16;65.93;;;28.80;;
80681;SDS011;70045;40.200;44.582;2023-12-20T13:59:41;63.45;;;27.00;;
80681;SDS011;70045;40.200;44.582;2023-12-20T14:02:07;67.07;;;27.30;;
80681;SDS011;70045;40.200;44.582;2023-12-20T14:04:32;78.38;;;28.92;;
80681;SDS011;70045;40.200;44.582;2023-12-20T14:06:58;65.57;;;26.60;;
80681;SDS011;70045;40.200;44.582;2023-12-20T14:09:29;56.55;;;24.77;;
80681;SDS011;70045;40.200;44.582;2023-12-20T14:11:54;65.72;;;27.05;;
80681;SDS011;70045;40.200;44.582;2023-12-20T14:14:20;58.13;;;24.70;;
80681;SDS011;70045;40.200;44.582;2023-12-20T14:16:45;60.28;;;27.02;;
80681;SDS011;70045;40.200;44.582;2023-12-20T14:19:11;56.13;;;26.25;;
80681;SDS011;70045;40.200;44.582;2023-12-20T14:21:47;58.17;;;24.63;;
80681;SDS011;70045;40.200;44.582;2023-12-20T14:24:13;59.05;;;25.80;;